createdAt,value
2019-01-20T00:02:20.682Z,100786.02
2019-01-20T00:04:49.048Z,100783.77
2019-01-20T00:07:17.455Z,100791.64
2019-01-20T00:09:45.830Z,100786.15
2019-01-20T00:12:14.206Z,100786.90
2019-01-20T00:14:43.322Z,100785.91
2019-01-20T00:17:11.695Z,100787.56
2019-01-20T00:19:40.073Z,100790.33
2019-01-20T00:22:08.446Z,100791.62
2019-01-20T00:24:36.830Z,100789.78
2019-01-20T00:27:05.635Z,100793.31
2019-01-20T00:29:34.013Z,100789.34
2019-01-20T00:32:02.392Z,100794.76
2019-01-20T00:34:30.778Z,100790.41
2019-01-20T00:36:59.242Z,100791.95
2019-01-20T00:39:27.622Z,100785.27
2019-01-20T00:41:55.993Z,100792.69
2019-01-20T00:44:24.620Z,100798.87
2019-01-20T00:46:52.993Z,100792.62
2019-01-20T00:49:21.371Z,100793.63
2019-01-20T00:51:49.756Z,100797.59
2019-01-20T00:54:18.194Z,100795.00
2019-01-20T00:56:46.573Z,100794.38
2019-01-20T00:59:14.948Z,100791.62
2019-01-20T01:01:43.329Z,100796.09
2019-01-20T01:04:11.703Z,100797.86
2019-01-20T01:06:40.094Z,100795.11
2019-01-20T01:09:08.907Z,100794.91
2019-01-20T01:11:37.354Z,100797.72
2019-01-20T01:14:06.102Z,100797.94
2019-01-20T01:16:34.563Z,100794.65
2019-01-20T01:19:03.009Z,100801.67
2019-01-20T01:21:31.713Z,100803.98
2019-01-20T01:24:00.089Z,100801.66
2019-01-20T01:26:28.468Z,100807.38
2019-01-20T01:28:56.844Z,100808.92
2019-01-20T01:31:25.227Z,100808.84
2019-01-20T01:33:53.619Z,100812.27
2019-01-20T01:36:21.983Z,100801.97
2019-01-20T01:38:50.375Z,100805.66
2019-01-20T01:41:18.741Z,100797.56
2019-01-20T01:43:47.135Z,100800.25
2019-01-20T01:46:15.512Z,100800.94
2019-01-20T01:48:43.909Z,100799.92
2019-01-20T01:51:12.287Z,100798.73
2019-01-20T01:53:40.669Z,100796.58
2019-01-20T01:56:09.047Z,100795.79
2019-01-20T01:58:37.432Z,100804.86
2019-01-20T02:01:06.037Z,100808.65
2019-01-20T02:03:34.410Z,100804.34
2019-01-20T02:06:02.795Z,100806.00
2019-01-20T02:08:31.166Z,100804.66
2019-01-20T02:10:59.571Z,100802.43
2019-01-20T02:13:27.944Z,100802.43
2019-01-20T02:15:56.316Z,100802.93
2019-01-20T02:18:24.702Z,100806.69
2019-01-20T02:20:53.077Z,100809.75
2019-01-20T02:23:21.519Z,100801.54
2019-01-20T02:25:49.907Z,100807.96
2019-01-20T02:28:18.281Z,100806.69
2019-01-20T02:30:46.666Z,100805.98
2019-01-20T02:33:15.045Z,100813.27
2019-01-20T02:35:43.432Z,100815.31
2019-01-20T02:38:11.803Z,100810.11
2019-01-20T02:40:40.195Z,100811.75
2019-01-20T02:43:08.570Z,100811.73
2019-01-20T02:45:36.952Z,100807.27
2019-01-20T02:48:05.323Z,100798.31
2019-01-20T02:50:33.697Z,100805.05
2019-01-20T02:53:02.076Z,100806.41
2019-01-20T02:55:30.455Z,100808.67
2019-01-20T02:57:58.847Z,100807.06
2019-01-20T03:00:27.221Z,100808.42
2019-01-20T03:02:55.689Z,100806.13
2019-01-20T03:05:24.587Z,100812.32
2019-01-20T03:07:53.050Z,100814.50
2019-01-20T03:10:21.567Z,100809.83
2019-01-20T03:12:49.942Z,100802.81
2019-01-20T03:15:18.311Z,100796.93
2019-01-20T03:17:46.769Z,100803.20
2019-01-20T03:20:20.307Z,100798.91
2019-01-20T03:22:48.942Z,100803.20
2019-01-20T03:25:17.968Z,100791.91
2019-01-20T03:27:46.357Z,100791.91
2019-01-20T03:30:17.466Z,100796.52
2019-01-20T03:32:45.840Z,100802.13
2019-01-20T03:35:15.339Z,100802.13
2019-01-20T03:37:43.983Z,100798.52
2019-01-20T03:40:15.298Z,100790.50
2019-01-20T03:42:43.745Z,100792.50
2019-01-20T03:45:14.655Z,100795.48
2019-01-20T03:47:43.341Z,100795.62
2019-01-20T03:50:13.671Z,100789.97
2019-01-20T03:52:42.038Z,100802.70
2019-01-20T03:55:12.663Z,100793.98
2019-01-20T03:57:41.042Z,100803.23
2019-01-20T04:00:17.390Z,100804.08
2019-01-20T04:02:47.586Z,100804.08
2019-01-20T04:05:16.042Z,100808.00
2019-01-20T04:07:44.410Z,100801.91
2019-01-20T04:10:16.879Z,100799.70
2019-01-20T04:12:45.338Z,100793.25
2019-01-20T04:15:15.256Z,100793.25
2019-01-20T04:17:44.174Z,100800.44
2019-01-20T04:20:16.179Z,100797.68
2019-01-20T04:22:44.560Z,100802.05
2019-01-20T04:25:17.738Z,100793.45
2019-01-20T04:27:46.196Z,100792.59
2019-01-20T04:30:17.112Z,100792.58
2019-01-20T04:32:45.485Z,100792.58
2019-01-20T04:35:13.945Z,100791.35
2019-01-20T04:37:42.315Z,100793.78
2019-01-20T04:40:16.277Z,100789.03
2019-01-20T04:42:44.657Z,100783.92
2019-01-20T04:45:14.627Z,100795.91
2019-01-20T04:47:43.073Z,100795.73
2019-01-20T04:50:14.273Z,100794.98
2019-01-20T04:52:42.743Z,100791.58
2019-01-20T04:55:13.098Z,100787.70
2019-01-20T04:57:42.547Z,100789.83
2019-01-20T05:00:16.574Z,100793.53
2019-01-20T05:02:44.961Z,100799.84
2019-01-20T05:05:13.407Z,100796.02
2019-01-20T05:07:41.795Z,100801.26
2019-01-20T05:10:12.717Z,100800.67
2019-01-20T05:12:41.093Z,100800.85
2019-01-20T05:15:15.079Z,100800.08
2019-01-20T05:17:43.465Z,100811.30
2019-01-20T05:20:12.867Z,100811.30
2019-01-20T05:22:41.322Z,100820.84
2019-01-20T05:25:10.939Z,100817.83
2019-01-20T05:27:39.307Z,100827.16
2019-01-20T05:30:11.016Z,100822.00
2019-01-20T05:32:39.384Z,100820.69
2019-01-20T05:35:09.312Z,100826.47
2019-01-20T05:37:37.725Z,100812.12
2019-01-20T05:40:08.949Z,100812.12
2019-01-20T05:42:37.326Z,100830.14
2019-01-20T05:45:08.759Z,100835.41
2019-01-20T05:47:37.131Z,100828.47
2019-01-20T05:50:09.162Z,100834.35
2019-01-20T05:52:37.766Z,100833.44
2019-01-20T05:55:11.663Z,100834.08
2019-01-20T05:57:40.105Z,100834.08
2019-01-20T06:00:11.538Z,100826.27
2019-01-20T06:02:39.988Z,100839.19
2019-01-20T06:05:08.372Z,100842.26
2019-01-20T06:07:36.755Z,100841.83
2019-01-20T06:10:08.353Z,100841.83
2019-01-20T06:12:36.994Z,100852.34
2019-01-20T06:15:08.476Z,100846.87
2019-01-20T06:17:37.762Z,100851.22
2019-01-20T06:20:08.493Z,100851.22
2019-01-20T06:22:36.863Z,100854.16
2019-01-20T06:25:07.377Z,100856.80
2019-01-20T06:27:35.817Z,100852.59
2019-01-20T06:30:16.041Z,100857.25
2019-01-20T06:32:44.421Z,100856.91
2019-01-20T06:35:12.876Z,100857.91
2019-01-20T06:37:41.259Z,100866.84
2019-01-20T06:40:09.873Z,100866.84
2019-01-20T06:42:38.256Z,100863.24
2019-01-20T06:45:12.062Z,100876.05
2019-01-20T06:47:40.445Z,100879.55
2019-01-20T06:50:11.800Z,100879.23
2019-01-20T06:52:40.215Z,100877.23
2019-01-20T06:55:10.114Z,100877.23
2019-01-20T06:57:38.573Z,100886.53
2019-01-20T07:00:18.894Z,100890.17
2019-01-20T07:02:47.279Z,100890.17
2019-01-20T07:05:15.668Z,100894.64
2019-01-20T07:07:44.512Z,100893.68
2019-01-20T07:10:17.442Z,100901.17
2019-01-20T07:12:45.842Z,100908.05
2019-01-20T07:15:16.460Z,100913.94
2019-01-20T07:17:44.905Z,100913.94
2019-01-20T07:20:14.340Z,100905.37
2019-01-20T07:22:42.789Z,100909.98
2019-01-20T07:25:11.411Z,100909.98
2019-01-20T07:27:39.776Z,100923.55
2019-01-20T07:30:16.807Z,100920.61
2019-01-20T07:32:45.249Z,100920.23
2019-01-20T07:35:13.983Z,100928.47
2019-01-20T07:37:42.422Z,100934.59
2019-01-20T07:40:16.229Z,100938.42
2019-01-20T07:42:44.607Z,100942.63
2019-01-20T07:45:14.537Z,100944.70
2019-01-20T07:47:42.911Z,100938.87
2019-01-20T07:50:14.222Z,100949.70
2019-01-20T07:52:42.595Z,100964.83
2019-01-20T07:55:11.050Z,100961.86
2019-01-20T07:57:39.435Z,101001.36
2019-01-20T08:00:14.103Z,100974.86
2019-01-20T08:02:42.524Z,100974.86
2019-01-20T08:05:11.238Z,100974.98
2019-01-20T08:07:39.634Z,100965.14
2019-01-20T08:10:16.951Z,100965.14
2019-01-20T08:12:46.244Z,100977.61
2019-01-20T08:15:16.168Z,100986.66
2019-01-20T08:17:44.616Z,100973.02
2019-01-20T08:20:18.496Z,100973.02
2019-01-20T08:22:46.927Z,100983.04
2019-01-20T08:25:16.928Z,100979.55
2019-01-20T08:27:45.376Z,100984.81
2019-01-20T08:30:16.536Z,100989.98
2019-01-20T08:32:44.923Z,100990.38
2019-01-20T08:35:14.235Z,100990.38
2019-01-20T08:37:42.695Z,101001.09
2019-01-20T08:40:19.021Z,100999.34
2019-01-20T08:42:47.399Z,100998.22
2019-01-20T08:45:18.839Z,101000.55
2019-01-20T08:47:49.163Z,101008.81
2019-01-20T08:50:17.587Z,101009.59
2019-01-20T08:52:46.030Z,101009.59
2019-01-20T08:55:14.419Z,101010.56
2019-01-20T08:57:42.831Z,101010.28
2019-01-20T09:00:14.441Z,101010.28
2019-01-20T09:02:42.829Z,101010.92
2019-01-20T09:05:11.556Z,101017.53
2019-01-20T09:07:39.928Z,101017.53
2019-01-20T09:10:14.393Z,101016.28
2019-01-20T09:12:42.937Z,101016.28
2019-01-20T09:15:11.315Z,101028.75
2019-01-20T09:17:39.690Z,101020.18
2019-01-20T09:20:11.115Z,101024.60
2019-01-20T09:22:39.491Z,101028.43
2019-01-20T09:25:10.306Z,101033.17
2019-01-20T09:27:38.767Z,101036.45
2019-01-20T09:30:19.213Z,101036.45
2019-01-20T09:32:47.611Z,101032.83
2019-01-20T09:35:16.149Z,101036.20
2019-01-20T09:37:44.545Z,101042.24
2019-01-20T09:40:15.260Z,101037.97
2019-01-20T09:42:43.727Z,101044.19
2019-01-20T09:45:17.178Z,101037.09
2019-01-20T09:47:45.560Z,101044.99
2019-01-20T09:50:13.998Z,101049.09
2019-01-20T09:52:42.379Z,101050.01
2019-01-20T09:55:12.085Z,101051.13
2019-01-20T09:57:40.465Z,101051.16
2019-01-20T10:00:15.075Z,101050.40
2019-01-20T10:02:43.450Z,101048.37
2019-01-20T10:05:11.887Z,101049.88
2019-01-20T10:07:40.259Z,101051.11
2019-01-20T10:10:11.778Z,101050.27
2019-01-20T10:12:40.156Z,101058.23
2019-01-20T10:15:13.162Z,101060.13
2019-01-20T10:17:41.538Z,101065.51
2019-01-20T10:20:27.144Z,101068.18
2019-01-20T10:22:56.081Z,101059.85
2019-01-20T10:25:24.518Z,101063.64
2019-01-20T10:27:52.896Z,101057.59
2019-01-20T10:30:24.496Z,101059.80
2019-01-20T10:32:52.942Z,101052.58
2019-01-20T10:35:23.021Z,101051.83
2019-01-20T10:38:01.745Z,101051.72
2019-01-20T10:40:30.185Z,101056.19
2019-01-20T10:42:58.554Z,101051.39
2019-01-20T10:45:26.949Z,101052.68
2019-01-20T10:47:55.337Z,101059.70
2019-01-20T10:50:23.699Z,101059.27
2019-01-20T10:52:52.074Z,101068.41
2019-01-20T10:55:20.447Z,101065.30
2019-01-20T10:57:48.898Z,101069.62
2019-01-20T11:00:28.905Z,101065.19
2019-01-20T11:02:57.392Z,101063.20
2019-01-20T11:05:30.800Z,101068.53
2019-01-20T11:07:56.273Z,101062.71
2019-01-20T11:10:24.645Z,101064.52
2019-01-20T11:12:53.032Z,101059.25
2019-01-20T11:15:21.465Z,101068.55
2019-01-20T11:17:49.846Z,101062.31
2019-01-20T11:20:20.052Z,101059.19
2019-01-20T11:22:48.443Z,101054.27
2019-01-20T11:25:19.861Z,101058.88
2019-01-20T11:27:48.407Z,101062.78
2019-01-20T11:30:16.916Z,101061.71
2019-01-20T11:32:45.300Z,101063.91
2019-01-20T11:35:16.670Z,101068.70
2019-01-20T11:37:45.125Z,101064.42
2019-01-20T11:40:14.742Z,101061.34
2019-01-20T11:42:43.257Z,101057.39
2019-01-20T11:45:17.966Z,101063.09
2019-01-20T11:47:46.409Z,101059.61
2019-01-20T11:50:15.617Z,101062.12
2019-01-20T11:52:44.163Z,101057.52
2019-01-20T11:55:18.320Z,101062.33
2019-01-20T11:57:46.708Z,101066.47
2019-01-20T12:00:20.762Z,101065.58
2019-01-20T12:02:49.123Z,101060.41
2019-01-20T12:05:18.427Z,101066.59
2019-01-20T12:07:46.799Z,101068.25
2019-01-20T12:10:15.354Z,101065.33
2019-01-20T12:12:45.365Z,101050.03
2019-01-20T12:15:15.698Z,101057.00
2019-01-20T12:17:44.146Z,101056.11
2019-01-20T12:20:14.464Z,101057.18
2019-01-20T12:22:43.812Z,101060.77
2019-01-20T12:25:19.671Z,101056.11
2019-01-20T12:27:48.043Z,101058.88
2019-01-20T12:30:21.679Z,101056.61
2019-01-20T12:32:50.358Z,101057.34
2019-01-20T12:35:18.739Z,101062.80
2019-01-20T12:37:47.111Z,101060.14
2019-01-20T12:40:26.516Z,101058.16
2019-01-20T12:42:54.963Z,101055.64
2019-01-20T12:45:23.425Z,101053.44
2019-01-20T12:47:51.801Z,101047.63
2019-01-20T12:50:20.254Z,101047.97
2019-01-20T12:52:48.624Z,101043.78
2019-01-20T12:55:17.487Z,101047.16
2019-01-20T12:57:45.940Z,101047.28
2019-01-20T13:00:19.145Z,101053.87
2019-01-20T13:02:47.695Z,101042.14
2019-01-20T13:05:16.147Z,101040.55
2019-01-20T13:07:44.585Z,101045.88
2019-01-20T13:10:18.283Z,101040.06
2019-01-20T13:12:46.793Z,101040.47
2019-01-20T13:15:20.348Z,101041.05
2019-01-20T13:17:48.800Z,101044.17
2019-01-20T13:20:19.756Z,101043.64
2019-01-20T13:22:48.364Z,101042.31
2019-01-20T13:25:22.237Z,101044.16
2019-01-20T13:27:50.615Z,101047.80
2019-01-20T13:30:24.223Z,101046.72
2019-01-20T13:32:52.770Z,101044.61
2019-01-20T13:35:22.002Z,101047.84
2019-01-20T13:37:53.121Z,101048.95
2019-01-20T13:40:24.568Z,101049.45
2019-01-20T13:42:53.194Z,101050.00
2019-01-20T13:45:21.569Z,101040.44
2019-01-20T13:47:49.948Z,101046.35
2019-01-20T13:50:19.874Z,101041.89
2019-01-20T13:52:48.252Z,101047.80
2019-01-20T13:55:18.018Z,101046.83
2019-01-20T13:57:46.407Z,101051.73
2019-01-20T14:00:25.069Z,101051.29
2019-01-20T14:02:53.591Z,101055.75
2019-01-20T14:05:22.098Z,101052.61
2019-01-20T14:07:50.545Z,101053.67
2019-01-20T14:10:24.395Z,101057.19
2019-01-20T14:12:52.916Z,101060.28
2019-01-20T14:15:21.368Z,101063.75
2019-01-20T14:17:49.762Z,101063.44
2019-01-20T14:20:25.465Z,101063.80
2019-01-20T14:22:53.848Z,101063.10
2019-01-20T14:25:29.591Z,101064.48
2019-01-20T14:27:57.967Z,101067.27
2019-01-20T14:30:34.167Z,101061.98
2019-01-20T14:33:02.546Z,101067.88
2019-01-20T14:35:30.921Z,101071.82
2019-01-20T14:37:59.307Z,101070.13
2019-01-20T14:40:27.685Z,101075.84
2019-01-20T14:42:56.065Z,101077.09
2019-01-20T14:45:24.512Z,101081.95
2019-01-20T14:47:52.959Z,101079.58
2019-01-20T14:50:23.952Z,101076.12
2019-01-20T14:52:52.404Z,101072.22
2019-01-20T14:55:21.140Z,101072.30
2019-01-20T14:57:49.483Z,101076.77
2019-01-20T15:00:26.307Z,101089.34
2019-01-20T15:02:54.752Z,101080.42
2019-01-20T15:05:23.149Z,101080.97
2019-01-20T15:07:51.525Z,101082.30
2019-01-20T15:10:19.909Z,101083.08
2019-01-20T15:12:48.281Z,101083.82
2019-01-20T15:15:21.017Z,101080.91
2019-01-20T15:17:49.382Z,101088.48
2019-01-20T15:20:17.765Z,101080.66
2019-01-20T15:22:46.145Z,101085.20
2019-01-20T15:25:16.575Z,101097.91
2019-01-20T15:27:44.951Z,101101.91
2019-01-20T15:30:19.320Z,101099.55
2019-01-20T15:32:47.931Z,101093.34
2019-01-20T15:35:16.375Z,101102.39
2019-01-20T15:37:44.757Z,101106.03
2019-01-20T15:40:16.235Z,101111.09
2019-01-20T15:42:44.616Z,101111.98
2019-01-20T15:45:16.462Z,101108.59
2019-01-20T15:47:45.084Z,101115.00
2019-01-20T15:50:18.794Z,101112.68
2019-01-20T15:52:47.175Z,101121.31
2019-01-20T15:55:15.793Z,101121.94
2019-01-20T15:57:44.172Z,101128.46
2019-01-20T16:00:17.849Z,101127.40
2019-01-20T16:02:46.290Z,101123.13
2019-01-20T16:05:14.911Z,101128.22
2019-01-20T16:07:43.295Z,101133.19
2019-01-20T16:10:14.278Z,101133.62
2019-01-20T16:12:42.662Z,101142.20
2019-01-20T16:15:23.989Z,101142.77
2019-01-20T16:17:47.578Z,101144.77
2019-01-20T16:20:17.885Z,101150.92
2019-01-20T16:22:46.414Z,101152.03
2019-01-20T16:25:20.276Z,101155.80
2019-01-20T16:27:48.734Z,101154.77
2019-01-20T16:30:25.991Z,101158.01
2019-01-20T16:32:54.450Z,101168.06
2019-01-20T16:35:23.670Z,101170.46
2019-01-20T16:37:52.037Z,101176.15
2019-01-20T16:40:22.652Z,101174.58
2019-01-20T16:42:51.099Z,101174.09
2019-01-20T16:45:22.358Z,101178.34
2019-01-20T16:47:50.755Z,101176.23
2019-01-20T16:50:24.655Z,101186.42
2019-01-20T16:52:54.698Z,101194.18
2019-01-20T16:55:23.515Z,101193.90
2019-01-20T16:57:51.968Z,101200.61
2019-01-20T17:00:28.703Z,101203.92
2019-01-20T17:02:57.215Z,101205.80
2019-01-20T17:05:27.057Z,101208.61
2019-01-20T17:07:55.560Z,101209.38
2019-01-20T17:10:26.774Z,101214.66
2019-01-20T17:12:55.228Z,101211.42
2019-01-20T17:15:26.329Z,101215.67
2019-01-20T17:17:54.698Z,101215.70
2019-01-20T17:20:23.226Z,101219.34
2019-01-20T17:22:51.595Z,101213.22
2019-01-20T17:25:19.989Z,101218.67
2019-01-20T17:27:48.439Z,101226.91
2019-01-20T17:30:22.262Z,101228.12
2019-01-20T17:32:50.642Z,101223.62
2019-01-20T17:35:19.120Z,101232.03
2019-01-20T17:37:47.488Z,101233.09
2019-01-20T17:40:18.590Z,101229.31
2019-01-20T17:42:47.044Z,101236.17
2019-01-20T17:45:24.726Z,101238.83
2019-01-20T17:47:53.082Z,101240.55
2019-01-20T17:50:23.913Z,101245.93
2019-01-20T17:52:52.952Z,101244.38
2019-01-20T17:55:21.406Z,101242.58
2019-01-20T17:57:49.853Z,101243.87
2019-01-20T18:00:20.920Z,101247.61
2019-01-20T18:02:49.463Z,101249.36
2019-01-20T18:05:20.798Z,101252.08
2019-01-20T18:07:49.174Z,101255.41
2019-01-20T18:10:17.627Z,101258.66
2019-01-20T18:12:46.072Z,101260.13
2019-01-20T18:15:17.584Z,101269.83
2019-01-20T18:17:46.022Z,101274.85
2019-01-20T18:20:19.395Z,101277.23
2019-01-20T18:22:47.914Z,101280.03
2019-01-20T18:25:18.174Z,101278.53
2019-01-20T18:27:46.619Z,101290.02
2019-01-20T18:30:18.663Z,101283.73
2019-01-20T18:32:47.042Z,101287.77
2019-01-20T18:35:15.483Z,101288.45
2019-01-20T18:37:43.864Z,101295.27
2019-01-20T18:40:17.472Z,101300.27
2019-01-20T18:42:45.920Z,101303.74
2019-01-20T18:45:16.437Z,101299.41
2019-01-20T18:47:45.002Z,101310.12
2019-01-20T18:50:16.458Z,101308.64
2019-01-20T18:52:44.830Z,101308.27
2019-01-20T18:55:15.577Z,101313.31
2019-01-20T18:57:44.395Z,101311.66
2019-01-20T19:00:21.571Z,101320.41
2019-01-20T19:02:49.961Z,101319.88
2019-01-20T19:05:18.775Z,101319.59
2019-01-20T19:07:47.457Z,101325.12
2019-01-20T19:10:18.881Z,101326.49
2019-01-20T19:12:47.336Z,101334.98
2019-01-20T19:15:18.510Z,101331.27
2019-01-20T19:17:46.812Z,101339.27
2019-01-20T19:20:19.608Z,101338.25
2019-01-20T19:22:48.938Z,101344.38
2019-01-20T19:25:17.576Z,101349.39
2019-01-20T19:27:46.129Z,101353.22
2019-01-20T19:30:17.483Z,101357.19
2019-01-20T19:32:45.864Z,101361.08
2019-01-20T19:35:14.382Z,101368.20
2019-01-20T19:37:42.830Z,101368.44
2019-01-20T19:40:13.345Z,101370.23
2019-01-20T19:42:41.752Z,101371.82
2019-01-20T19:45:12.868Z,101369.69
2019-01-20T19:47:41.239Z,101383.34
2019-01-20T19:50:12.025Z,101375.67
2019-01-20T19:52:40.442Z,101383.98
2019-01-20T19:55:11.861Z,101384.83
2019-01-20T19:57:40.230Z,101385.95
2019-01-20T20:00:14.787Z,101392.16
2019-01-20T20:02:43.164Z,101391.95
2019-01-20T20:05:14.103Z,101393.98
2019-01-20T20:07:42.484Z,101396.53
2019-01-20T20:10:13.703Z,101395.78
2019-01-20T20:12:42.073Z,101400.65
2019-01-20T20:15:16.401Z,101405.61
2019-01-20T20:17:45.024Z,101407.64
2019-01-20T20:20:15.904Z,101407.61
2019-01-20T20:22:44.282Z,101409.78
2019-01-20T20:25:15.003Z,101408.86
2019-01-20T20:27:43.382Z,101416.00
2019-01-20T20:30:20.654Z,101413.94
2019-01-20T20:32:49.018Z,101415.03
2019-01-20T20:35:17.404Z,101419.16
2019-01-20T20:37:45.784Z,101418.98
2019-01-20T20:40:19.265Z,101426.02
2019-01-20T20:42:47.644Z,101420.59
2019-01-20T20:45:18.714Z,101425.88
2019-01-20T20:47:47.241Z,101431.13
2019-01-20T20:50:16.966Z,101436.38
2019-01-20T20:52:46.254Z,101436.64
2019-01-20T20:55:14.872Z,101441.52
2019-01-20T20:57:43.496Z,101445.89
2019-01-20T21:00:20.566Z,101448.60
2019-01-20T21:02:49.011Z,101458.58
2019-01-20T21:05:17.403Z,101457.53
2019-01-20T21:07:45.924Z,101453.94
2019-01-20T21:10:17.608Z,101456.91
2019-01-20T21:12:46.073Z,101457.09
2019-01-20T21:15:16.207Z,101458.36
2019-01-20T21:17:48.455Z,101459.37
2019-01-20T21:20:22.611Z,101463.03
2019-01-20T21:22:51.067Z,101467.89
2019-01-20T21:25:19.638Z,101472.77
2019-01-20T21:27:48.025Z,101457.34
2019-01-20T21:30:27.455Z,101469.45
2019-01-20T21:32:55.842Z,101475.44
2019-01-20T21:35:24.293Z,101479.97
2019-01-20T21:37:52.681Z,101478.92
2019-01-20T21:40:21.125Z,101485.46
2019-01-20T21:42:49.589Z,101482.36
2019-01-20T21:45:18.911Z,101487.62
2019-01-20T21:47:47.439Z,101495.38
2019-01-20T21:50:21.462Z,101495.38
2019-01-20T21:52:49.850Z,101500.26
2019-01-20T21:55:18.302Z,101500.13
2019-01-20T21:57:46.684Z,101502.23
2019-01-20T22:00:20.254Z,101506.91
2019-01-20T22:02:48.645Z,101507.62
2019-01-20T22:05:17.031Z,101515.50
2019-01-20T22:07:46.060Z,101519.11
2019-01-20T22:10:19.307Z,101532.23
2019-01-20T22:12:47.770Z,101532.23
2019-01-20T22:15:16.389Z,101535.25
2019-01-20T22:17:45.613Z,101530.97
2019-01-20T22:20:16.336Z,101530.40
2019-01-20T22:22:44.864Z,101531.31
2019-01-20T22:25:13.787Z,101540.05
2019-01-20T22:27:42.433Z,101540.88
2019-01-20T22:30:19.188Z,101540.70
2019-01-20T22:32:47.584Z,101546.47
2019-01-20T22:35:16.199Z,101547.91
2019-01-20T22:37:44.588Z,101549.08
2019-01-20T22:40:15.210Z,101551.80
2019-01-20T22:42:43.579Z,101549.19
2019-01-20T22:45:14.647Z,101548.55
2019-01-20T22:47:43.025Z,101556.77
2019-01-20T22:50:13.163Z,101553.89
2019-01-20T22:52:41.796Z,101560.70
2019-01-20T22:55:15.613Z,101558.14
2019-01-20T22:57:44.325Z,101559.66
2019-01-20T23:00:18.434Z,101562.05
2019-01-20T23:02:47.083Z,101566.78
2019-01-20T23:05:15.633Z,101560.33
2019-01-20T23:07:44.008Z,101568.59
2019-01-20T23:10:12.397Z,101571.33
2019-01-20T23:12:40.782Z,101562.46
2019-01-20T23:15:10.201Z,101564.63
2019-01-20T23:17:38.580Z,101564.63
2019-01-20T23:20:10.020Z,101571.33
2019-01-20T23:22:38.393Z,101572.97
2019-01-20T23:25:06.944Z,101570.23
2019-01-20T23:27:35.346Z,101549.97
2019-01-20T23:30:05.329Z,101560.97
2019-01-20T23:32:33.704Z,101569.05
2019-01-20T23:35:02.087Z,101568.73
2019-01-20T23:37:30.503Z,101578.52
2019-01-20T23:39:58.884Z,101574.66
2019-01-20T23:42:27.266Z,101574.66
2019-01-20T23:44:55.641Z,101576.03
2019-01-20T23:47:24.032Z,101571.61
2019-01-20T23:49:52.410Z,101575.19
2019-01-20T23:52:20.795Z,101578.61
2019-01-20T23:54:49.176Z,101582.33
2019-01-20T23:57:17.795Z,101584.70
2019-01-20T23:59:46.180Z,101575.80
